OJAM/ADJ METAR and TAF weather

Enter ICAO airport designator
Station Type Date Time Source
OJAM METAR 2019/10/23 20:00 UTC NOAA

OJAM 232000Z 00000KT 5000 HZ FEW035 17/14 Q1014 NOSIG


Station Type Date Time Source
OJAM Decoded METAR 2019/10/23 20:00 UTC NOAA

Amman Airport, Jordan (OJAM) 31-59N 035-59E 768M
Oct 23, 2019 - 04:00 PM EDT / 2019.10.23 2000 UTC
Wind: Calm:0
Visibility: 3 mile(s):0
Sky conditions: mostly clear
Weather: haze
Temperature: 62 F (17 C)
Dew Point: 57 F (14 C)
Relative Humidity: 82%
Pressure (altimeter): 29.94 in. Hg (1014 hPa)
ob: OJAM 232000Z 00000KT 5000 HZ FEW035 17/14 Q1014 NOSIG
cycle: 20

Station Type Date Time Source
OJAM TAF 2019/10/23 18:15 UTC NOAA

TAF COR OJAM 231656Z 2318/2424 29011KT 5000 HZ NSC PROB40
TEMPO 2323/2412 06010G20KT 3000 TSRA BLDU FEW040CB BKN080 PROB40 2400/2406 30012KT 3000 BR

Example: see airport list